sensor_id;sensor_type;location;lat;lon;timestamp;temperature;humidity
24091;DHT22;12272;52.426;17.100;2023-03-25T00:03:45;11.90;99.90
24091;DHT22;12272;52.426;17.100;2023-03-25T00:08:52;12.80;99.90
24091;DHT22;12272;52.426;17.100;2023-03-25T00:13:55;13.50;99.90
24091;DHT22;12272;52.426;17.100;2023-03-25T00:18:57;13.10;99.90
24091;DHT22;12272;52.426;17.100;2023-03-25T00:24:03;13.40;99.90
24091;DHT22;12272;52.426;17.100;2023-03-25T00:29:06;13.30;99.90
24091;DHT22;12272;52.426;17.100;2023-03-25T00:34:09;12.70;99.90
24091;DHT22;12272;52.426;17.100;2023-03-25T00:39:15;12.10;99.90
24091;DHT22;12272;52.426;17.100;2023-03-25T00:44:18;11.70;99.90
24091;DHT22;12272;52.426;17.100;2023-03-25T00:49:20;11.60;99.90
24091;DHT22;12272;52.426;17.100;2023-03-25T00:54:26;11.70;99.90
24091;DHT22;12272;52.426;17.100;2023-03-25T00:59:29;11.60;99.90
24091;DHT22;12272;52.426;17.100;2023-03-25T01:04:34;11.40;99.90
24091;DHT22;12272;52.426;17.100;2023-03-25T01:09:42;10.50;99.90
24091;DHT22;12272;52.426;17.100;2023-03-25T01:14:48;10.00;99.90
24091;DHT22;12272;52.426;17.100;2023-03-25T01:19:50;9.50;99.90
24091;DHT22;12272;52.426;17.100;2023-03-25T01:24:53;9.20;99.90
24091;DHT22;12272;52.426;17.100;2023-03-25T01:34:59;8.80;99.90
24091;DHT22;12272;52.426;17.100;2023-03-25T01:40:02;8.60;99.90
24091;DHT22;12272;52.426;17.100;2023-03-25T01:45:28;8.30;99.90
24091;DHT22;12272;52.426;17.100;2023-03-25T01:50:32;8.10;99.90
24091;DHT22;12272;52.426;17.100;2023-03-25T01:55:37;7.90;99.90
24091;DHT22;12272;52.426;17.100;2023-03-25T02:00:44;7.80;99.90
24091;DHT22;12272;52.426;17.100;2023-03-25T02:06:00;7.80;99.90
24091;DHT22;12272;52.426;17.100;2023-03-25T02:11:05;7.90;99.90
24091;DHT22;12272;52.426;17.100;2023-03-25T02:27:19;7.60;99.90
24091;DHT22;12272;52.426;17.100;2023-03-25T02:37:59;7.50;99.90
24091;DHT22;12272;52.426;17.100;2023-03-25T02:43:23;7.30;99.90
24091;DHT22;12272;52.426;17.100;2023-03-25T02:48:36;7.10;99.90
24091;DHT22;12272;52.426;17.100;2023-03-25T02:53:44;7.10;99.90
24091;DHT22;12272;52.426;17.100;2023-03-25T02:58:48;7.00;99.90
24091;DHT22;12272;52.426;17.100;2023-03-25T03:03:53;6.90;99.90
24091;DHT22;12272;52.426;17.100;2023-03-25T03:14:33;8.00;99.90
24091;DHT22;12272;52.426;17.100;2023-03-25T03:19:49;9.20;99.90
24091;DHT22;12272;52.426;17.100;2023-03-25T03:25:26;8.50;99.90
24091;DHT22;12272;52.426;17.100;2023-03-25T03:30:50;8.30;99.90
24091;DHT22;12272;52.426;17.100;2023-03-25T03:35:53;7.90;99.90
24091;DHT22;12272;52.426;17.100;2023-03-25T03:41:03;7.60;99.90
24091;DHT22;12272;52.426;17.100;2023-03-25T03:46:23;7.60;99.90
24091;DHT22;12272;52.426;17.100;2023-03-25T03:51:37;8.10;99.90
24091;DHT22;12272;52.426;17.100;2023-03-25T03:56:46;8.50;99.90
24091;DHT22;12272;52.426;17.100;2023-03-25T04:01:58;8.00;99.90
24091;DHT22;12272;52.426;17.100;2023-03-25T04:07:19;7.30;99.90
24091;DHT22;12272;52.426;17.100;2023-03-25T04:12:31;7.20;99.90
24091;DHT22;12272;52.426;17.100;2023-03-25T04:17:34;7.00;99.90
24091;DHT22;12272;52.426;17.100;2023-03-25T04:22:37;7.00;99.90
24091;DHT22;12272;52.426;17.100;2023-03-25T04:27:39;6.90;99.90
24091;DHT22;12272;52.426;17.100;2023-03-25T04:32:43;6.80;99.90
24091;DHT22;12272;52.426;17.100;2023-03-25T04:37:48;6.60;99.90
24091;DHT22;12272;52.426;17.100;2023-03-25T04:42:50;6.70;99.90
24091;DHT22;12272;52.426;17.100;2023-03-25T04:47:54;6.40;99.90
24091;DHT22;12272;52.426;17.100;2023-03-25T04:52:57;6.40;99.90
24091;DHT22;12272;52.426;17.100;2023-03-25T04:58:01;6.50;99.90
24091;DHT22;12272;52.426;17.100;2023-03-25T05:03:04;6.70;99.90
24091;DHT22;12272;52.426;17.100;2023-03-25T05:08:07;6.90;99.90
24091;DHT22;12272;52.426;17.100;2023-03-25T05:13:09;6.90;99.90
24091;DHT22;12272;52.426;17.100;2023-03-25T05:18:14;7.00;99.90
24091;DHT22;12272;52.426;17.100;2023-03-25T05:23:17;7.00;99.90
24091;DHT22;12272;52.426;17.100;2023-03-25T05:28:20;7.10;99.90
24091;DHT22;12272;52.426;17.100;2023-03-25T05:33:22;7.20;99.90
24091;DHT22;12272;52.426;17.100;2023-03-25T05:38:25;7.20;99.90
24091;DHT22;12272;52.426;17.100;2023-03-25T05:43:27;7.30;99.90
24091;DHT22;12272;52.426;17.100;2023-03-25T05:48:31;7.50;99.90
24091;DHT22;12272;52.426;17.100;2023-03-25T05:53:34;7.80;99.90
24091;DHT22;12272;52.426;17.100;2023-03-25T05:58:37;8.30;99.90
24091;DHT22;12272;52.426;17.100;2023-03-25T06:03:41;9.20;99.90
24091;DHT22;12272;52.426;17.100;2023-03-25T06:08:48;10.30;99.90
24091;DHT22;12272;52.426;17.100;2023-03-25T06:18:54;13.00;99.90
24091;DHT22;12272;52.426;17.100;2023-03-25T06:24:07;13.00;99.90
24091;DHT22;12272;52.426;17.100;2023-03-25T06:29:10;12.70;99.90
24091;DHT22;12272;52.426;17.100;2023-03-25T06:34:15;13.00;99.90
24091;DHT22;12272;52.426;17.100;2023-03-25T06:39:18;13.00;99.90
24091;DHT22;12272;52.426;17.100;2023-03-25T06:44:24;13.00;99.90
24091;DHT22;12272;52.426;17.100;2023-03-25T06:49:39;12.80;99.90
24091;DHT22;12272;52.426;17.100;2023-03-25T06:54:42;13.00;99.90
24091;DHT22;12272;52.426;17.100;2023-03-25T06:59:44;13.10;99.90
24091;DHT22;12272;52.426;17.100;2023-03-25T07:04:48;13.50;99.90
24091;DHT22;12272;52.426;17.100;2023-03-25T07:09:52;13.60;99.90
24091;DHT22;12272;52.426;17.100;2023-03-25T07:14:56;13.80;99.90
24091;DHT22;12272;52.426;17.100;2023-03-25T07:25:03;14.00;99.90
24091;DHT22;12272;52.426;17.100;2023-03-25T07:30:06;14.30;99.90
24091;DHT22;12272;52.426;17.100;2023-03-25T07:35:09;13.90;99.90
24091;DHT22;12272;52.426;17.100;2023-03-25T07:40:12;14.40;99.90
24091;DHT22;12272;52.426;17.100;2023-03-25T07:45:14;14.40;99.90
24091;DHT22;12272;52.426;17.100;2023-03-25T07:50:21;15.10;99.90
24091;DHT22;12272;52.426;17.100;2023-03-25T07:55:26;15.20;99.90
24091;DHT22;12272;52.426;17.100;2023-03-25T08:00:29;15.00;99.90
24091;DHT22;12272;52.426;17.100;2023-03-25T08:05:32;14.60;99.90
24091;DHT22;12272;52.426;17.100;2023-03-25T08:10:34;14.60;99.90
24091;DHT22;12272;52.426;17.100;2023-03-25T08:15:37;14.70;99.90
24091;DHT22;12272;52.426;17.100;2023-03-25T08:20:40;15.10;99.90
24091;DHT22;12272;52.426;17.100;2023-03-25T08:30:46;16.40;99.90
24091;DHT22;12272;52.426;17.100;2023-03-25T08:35:52;17.00;99.90
24091;DHT22;12272;52.426;17.100;2023-03-25T08:45:58;18.10;99.90
24091;DHT22;12272;52.426;17.100;2023-03-25T08:51:01;18.40;99.90
24091;DHT22;12272;52.426;17.100;2023-03-25T08:56:04;17.80;99.90
24091;DHT22;12272;52.426;17.100;2023-03-25T09:01:06;17.90;99.90
24091;DHT22;12272;52.426;17.100;2023-03-25T09:06:09;18.40;99.90
24091;DHT22;12272;52.426;17.100;2023-03-25T09:11:12;18.60;99.90
24091;DHT22;12272;52.426;17.100;2023-03-25T09:16:23;19.00;99.90
24091;DHT22;12272;52.426;17.100;2023-03-25T11:34:21;14.20;99.90
24091;DHT22;12272;52.426;17.100;2023-03-25T11:39:32;14.00;99.90
24091;DHT22;12272;52.426;17.100;2023-03-25T11:44:36;13.00;99.90
24091;DHT22;12272;52.426;17.100;2023-03-25T11:49:39;12.70;99.90
24091;DHT22;12272;52.426;17.100;2023-03-25T11:54:43;11.90;99.90
24091;DHT22;12272;52.426;17.100;2023-03-25T11:59:47;11.20;99.90
24091;DHT22;12272;52.426;17.100;2023-03-25T12:05:00;11.30;99.90
24091;DHT22;12272;52.426;17.100;2023-03-25T12:10:04;12.30;99.90
24091;DHT22;12272;52.426;17.100;2023-03-25T12:31:32;13.80;99.90
24091;DHT22;12272;52.426;17.100;2023-03-25T12:42:15;16.00;99.90
24091;DHT22;12272;52.426;17.100;2023-03-25T12:47:26;17.00;99.90
24091;DHT22;12272;52.426;17.100;2023-03-25T13:08:20;14.00;92.70
24091;DHT22;12272;52.426;17.100;2023-03-25T13:13:26;14.10;99.40
24091;DHT22;12272;52.426;17.100;2023-03-25T13:18:51;15.50;95.80
24091;DHT22;12272;52.426;17.100;2023-03-25T13:23:59;16.70;91.80
24091;DHT22;12272;52.426;17.100;2023-03-25T13:29:05;17.40;86.30
24091;DHT22;12272;52.426;17.100;2023-03-25T13:44:51;18.10;80.10
24091;DHT22;12272;52.426;17.100;2023-03-25T13:50:07;18.30;79.30
24091;DHT22;12272;52.426;17.100;2023-03-25T13:55:19;17.90;81.80
24091;DHT22;12272;52.426;17.100;2023-03-25T14:00:59;17.60;81.40
24091;DHT22;12272;52.426;17.100;2023-03-25T14:06:10;17.80;85.20
24091;DHT22;12272;52.426;17.100;2023-03-25T14:16:25;17.60;86.30
24091;DHT22;12272;52.426;17.100;2023-03-25T14:21:40;17.50;88.80
24091;DHT22;12272;52.426;17.100;2023-03-25T14:26:47;17.10;91.20
24091;DHT22;12272;52.426;17.100;2023-03-25T14:42:57;16.80;90.20
24091;DHT22;12272;52.426;17.100;2023-03-25T14:48:04;16.80;82.50
24091;DHT22;12272;52.426;17.100;2023-03-25T14:53:26;16.70;92.00
24091;DHT22;12272;52.426;17.100;2023-03-25T14:58:29;15.80;96.70
24091;DHT22;12272;52.426;17.100;2023-03-25T15:03:36;13.80;95.40
24091;DHT22;12272;52.426;17.100;2023-03-25T15:08:41;12.80;99.90
24091;DHT22;12272;52.426;17.100;2023-03-25T15:13:48;12.50;99.90
24091;DHT22;12272;52.426;17.100;2023-03-25T15:24:04;12.00;99.90
24091;DHT22;12272;52.426;17.100;2023-03-25T15:29:45;11.70;99.90
24091;DHT22;12272;52.426;17.100;2023-03-25T15:35:34;11.60;99.90
24091;DHT22;12272;52.426;17.100;2023-03-25T16:02:37;11.20;99.90
24091;DHT22;12272;52.426;17.100;2023-03-25T16:07:42;12.00;99.90
24091;DHT22;12272;52.426;17.100;2023-03-25T16:12:47;12.70;99.90
24091;DHT22;12272;52.426;17.100;2023-03-25T16:17:50;12.90;99.90
24091;DHT22;12272;52.426;17.100;2023-03-25T16:22:55;12.40;99.90
24091;DHT22;12272;52.426;17.100;2023-03-25T16:28:00;12.60;99.90
24091;DHT22;12272;52.426;17.100;2023-03-25T16:33:12;12.30;99.90
24091;DHT22;12272;52.426;17.100;2023-03-25T16:38:18;12.10;99.90
24091;DHT22;12272;52.426;17.100;2023-03-25T16:43:22;12.10;99.90
24091;DHT22;12272;52.426;17.100;2023-03-25T16:48:29;12.00;99.90
24091;DHT22;12272;52.426;17.100;2023-03-25T16:53:35;11.70;99.90
24091;DHT22;12272;52.426;17.100;2023-03-25T17:09:18;11.40;99.90
24091;DHT22;12272;52.426;17.100;2023-03-25T17:14:27;11.30;99.90
24091;DHT22;12272;52.426;17.100;2023-03-25T17:19:31;11.60;99.90
24091;DHT22;12272;52.426;17.100;2023-03-25T17:24:42;13.00;99.90
24091;DHT22;12272;52.426;17.100;2023-03-25T17:29:59;14.10;99.90
24091;DHT22;12272;52.426;17.100;2023-03-25T17:35:21;14.50;99.90
24091;DHT22;12272;52.426;17.100;2023-03-25T17:40:27;14.80;99.90
24091;DHT22;12272;52.426;17.100;2023-03-25T17:45:30;14.10;99.90
24091;DHT22;12272;52.426;17.100;2023-03-25T17:50:32;13.60;99.90
24091;DHT22;12272;52.426;17.100;2023-03-25T17:55:35;12.40;99.90
24091;DHT22;12272;52.426;17.100;2023-03-25T18:00:38;12.20;99.90
24091;DHT22;12272;52.426;17.100;2023-03-25T18:05:41;12.10;99.90
24091;DHT22;12272;52.426;17.100;2023-03-25T18:10:44;12.70;99.90
24091;DHT22;12272;52.426;17.100;2023-03-25T18:15:47;12.80;99.90
24091;DHT22;12272;52.426;17.100;2023-03-25T18:20:51;13.80;99.90
24091;DHT22;12272;52.426;17.100;2023-03-25T18:25:54;12.50;99.90
24091;DHT22;12272;52.426;17.100;2023-03-25T18:30:58;11.60;99.90
24091;DHT22;12272;52.426;17.100;2023-03-25T18:36:00;11.40;99.90
24091;DHT22;12272;52.426;17.100;2023-03-25T18:41:03;11.70;99.90
24091;DHT22;12272;52.426;17.100;2023-03-25T18:46:10;11.10;99.90
24091;DHT22;12272;52.426;17.100;2023-03-25T18:51:16;10.40;99.90
24091;DHT22;12272;52.426;17.100;2023-03-25T18:56:19;9.80;99.90
24091;DHT22;12272;52.426;17.100;2023-03-25T19:06:29;16.40;99.90
24091;DHT22;12272;52.426;17.100;2023-03-25T19:11:32;16.40;99.90
24091;DHT22;12272;52.426;17.100;2023-03-25T19:16:37;17.70;99.90
24091;DHT22;12272;52.426;17.100;2023-03-25T19:21:39;17.80;99.90
24091;DHT22;12272;52.426;17.100;2023-03-25T19:26:43;16.70;99.90
24091;DHT22;12272;52.426;17.100;2023-03-25T19:46:54;9.10;99.90
24091;DHT22;12272;52.426;17.100;2023-03-25T19:51:57;8.40;99.90
24091;DHT22;12272;52.426;17.100;2023-03-25T20:02:02;7.20;99.90
24091;DHT22;12272;52.426;17.100;2023-03-25T20:07:05;6.80;99.90
24091;DHT22;12272;52.426;17.100;2023-03-25T20:12:08;6.80;99.90
24091;DHT22;12272;52.426;17.100;2023-03-25T20:17:11;6.90;99.90
24091;DHT22;12272;52.426;17.100;2023-03-25T20:22:13;6.70;99.90
24091;DHT22;12272;52.426;17.100;2023-03-25T20:27:21;6.70;99.90
24091;DHT22;12272;52.426;17.100;2023-03-25T20:32:24;6.50;99.90
24091;DHT22;12272;52.426;17.100;2023-03-25T20:37:42;6.20;99.90
24091;DHT22;12272;52.426;17.100;2023-03-25T20:42:47;6.00;99.90
24091;DHT22;12272;52.426;17.100;2023-03-25T20:47:50;6.00;99.90
24091;DHT22;12272;52.426;17.100;2023-03-25T20:52:53;6.40;99.90
24091;DHT22;12272;52.426;17.100;2023-03-25T20:57:55;7.80;99.90
24091;DHT22;12272;52.426;17.100;2023-03-25T21:02:58;9.30;99.90
24091;DHT22;12272;52.426;17.100;2023-03-25T21:08:01;9.90;99.90
24091;DHT22;12272;52.426;17.100;2023-03-25T21:13:04;11.20;99.90
24091;DHT22;12272;52.426;17.100;2023-03-25T21:18:07;11.70;99.90
24091;DHT22;12272;52.426;17.100;2023-03-25T21:23:10;12.30;99.90
24091;DHT22;12272;52.426;17.100;2023-03-25T21:28:13;12.10;99.90
24091;DHT22;12272;52.426;17.100;2023-03-25T21:38:18;13.40;99.90
24091;DHT22;12272;52.426;17.100;2023-03-25T21:43:31;13.10;99.90
24091;DHT22;12272;52.426;17.100;2023-03-25T21:48:35;12.40;99.90
24091;DHT22;12272;52.426;17.100;2023-03-25T21:53:42;12.20;99.90
24091;DHT22;12272;52.426;17.100;2023-03-25T21:58:47;11.60;99.90
24091;DHT22;12272;52.426;17.100;2023-03-25T22:03:50;11.30;99.90
24091;DHT22;12272;52.426;17.100;2023-03-25T22:09:02;11.20;99.90
24091;DHT22;12272;52.426;17.100;2023-03-25T22:14:12;11.10;99.90
24091;DHT22;12272;52.426;17.100;2023-03-25T22:19:15;12.20;99.90
24091;DHT22;12272;52.426;17.100;2023-03-25T22:24:18;12.00;99.90
24091;DHT22;12272;52.426;17.100;2023-03-25T22:29:20;12.10;99.90
24091;DHT22;12272;52.426;17.100;2023-03-25T22:34:23;12.20;99.90
24091;DHT22;12272;52.426;17.100;2023-03-25T22:39:26;12.00;99.90
24091;DHT22;12272;52.426;17.100;2023-03-25T22:44:29;12.20;99.90
24091;DHT22;12272;52.426;17.100;2023-03-25T22:49:32;11.90;99.90
24091;DHT22;12272;52.426;17.100;2023-03-25T22:54:35;11.50;99.90
24091;DHT22;12272;52.426;17.100;2023-03-25T22:59:37;11.30;99.90
24091;DHT22;12272;52.426;17.100;2023-03-25T23:04:40;11.40;99.90
24091;DHT22;12272;52.426;17.100;2023-03-25T23:09:43;11.20;99.90
24091;DHT22;12272;52.426;17.100;2023-03-25T23:14:52;11.80;99.90
24091;DHT22;12272;52.426;17.100;2023-03-25T23:19:55;11.70;99.90
24091;DHT22;12272;52.426;17.100;2023-03-25T23:24:58;11.90;99.90
24091;DHT22;12272;52.426;17.100;2023-03-25T23:30:02;12.40;99.90
24091;DHT22;12272;52.426;17.100;2023-03-25T23:40:09;14.80;99.90
24091;DHT22;12272;52.426;17.100;2023-03-25T23:45:13;15.00;99.90
24091;DHT22;12272;52.426;17.100;2023-03-25T23:50:16;15.50;99.90
24091;DHT22;12272;52.426;17.100;2023-03-25T23:55:20;15.40;99.90
